sensor_id;sensor_type;location;lat;lon;timestamp;pressure;altitude;pressure_sealevel;temperature;humidity
72525;BME280;60547;48.502;8.996;2022-12-18T00:01:32;99087.59;;;-9.84;81.80
72525;BME280;60547;48.502;8.996;2022-12-18T00:04:00;99099.97;;;-9.78;81.74
72525;BME280;60547;48.502;8.996;2022-12-18T00:06:27;99094.06;;;-9.80;81.59
72525;BME280;60547;48.502;8.996;2022-12-18T00:08:54;99098.63;;;-9.81;81.66
72525;BME280;60547;48.502;8.996;2022-12-18T00:11:22;99105.88;;;-9.76;81.16
72525;BME280;60547;48.502;8.996;2022-12-18T00:13:48;99102.97;;;-9.95;81.31
72525;BME280;60547;48.502;8.996;2022-12-18T00:16:16;99104.59;;;-9.99;81.97
72525;BME280;60547;48.502;8.996;2022-12-18T00:18:43;99086.00;;;-9.90;81.81
72525;BME280;60547;48.502;8.996;2022-12-18T00:21:10;99097.03;;;-9.82;81.56
72525;BME280;60547;48.502;8.996;2022-12-18T00:23:37;99096.75;;;-9.80;81.63
72525;BME280;60547;48.502;8.996;2022-12-18T00:26:07;99095.69;;;-9.89;81.73
72525;BME280;60547;48.502;8.996;2022-12-18T00:28:32;99103.22;;;-9.81;81.55
72525;BME280;60547;48.502;8.996;2022-12-18T00:31:06;99100.50;;;-9.76;80.60
72525;BME280;60547;48.502;8.996;2022-12-18T00:33:32;99106.69;;;-9.75;80.00
72525;BME280;60547;48.502;8.996;2022-12-18T00:36:09;99098.63;;;-9.81;79.89
72525;BME280;60547;48.502;8.996;2022-12-18T00:38:35;99090.31;;;-9.89;79.20
72525;BME280;60547;48.502;8.996;2022-12-18T00:41:01;99097.84;;;-9.91;79.25
72525;BME280;60547;48.502;8.996;2022-12-18T00:43:26;99101.63;;;-9.92;79.12
72525;BME280;60547;48.502;8.996;2022-12-18T00:45:52;99099.22;;;-9.94;79.39
72525;BME280;60547;48.502;8.996;2022-12-18T00:48:18;99101.06;;;-9.89;79.54
72525;BME280;60547;48.502;8.996;2022-12-18T00:50:43;99105.69;;;-10.00;79.48
72525;BME280;60547;48.502;8.996;2022-12-18T00:53:09;99100.56;;;-9.96;79.90
72525;BME280;60547;48.502;8.996;2022-12-18T00:55:34;99099.50;;;-10.00;80.24
72525;BME280;60547;48.502;8.996;2022-12-18T00:58:00;99114.09;;;-10.67;81.33
72525;BME280;60547;48.502;8.996;2022-12-18T01:00:25;99116.53;;;-10.46;82.02
72525;BME280;60547;48.502;8.996;2022-12-18T01:02:51;99113.03;;;-10.36;81.19
72525;BME280;60547;48.502;8.996;2022-12-18T01:05:16;99103.88;;;-10.35;81.17
72525;BME280;60547;48.502;8.996;2022-12-18T01:07:42;99103.88;;;-10.25;82.01
72525;BME280;60547;48.502;8.996;2022-12-18T01:10:09;99117.31;;;-10.20;82.04
72525;BME280;60547;48.502;8.996;2022-12-18T01:12:35;99115.44;;;-10.24;82.28
72525;BME280;60547;48.502;8.996;2022-12-18T01:15:00;99112.22;;;-10.26;82.55
72525;BME280;60547;48.502;8.996;2022-12-18T01:17:26;99115.16;;;-10.23;82.71
72525;BME280;60547;48.502;8.996;2022-12-18T01:19:51;99116.25;;;-10.24;81.85
72525;BME280;60547;48.502;8.996;2022-12-18T01:22:16;99118.09;;;-10.19;82.01
72525;BME280;60547;48.502;8.996;2022-12-18T01:24:42;99115.16;;;-10.28;82.24
72525;BME280;60547;48.502;8.996;2022-12-18T01:27:07;99116.78;;;-10.27;81.64
72525;BME280;60547;48.502;8.996;2022-12-18T01:29:33;99120.56;;;-10.28;82.50
72525;BME280;60547;48.502;8.996;2022-12-18T01:31:58;99116.78;;;-10.32;82.38
72525;BME280;60547;48.502;8.996;2022-12-18T01:34:24;99125.94;;;-10.28;82.54
72525;BME280;60547;48.502;8.996;2022-12-18T01:36:50;99114.09;;;-10.32;82.67
72525;BME280;60547;48.502;8.996;2022-12-18T01:39:20;99117.31;;;-10.30;82.47
72525;BME280;60547;48.502;8.996;2022-12-18T01:41:47;99118.41;;;-10.26;82.29
72525;BME280;60547;48.502;8.996;2022-12-18T01:47:39;99127.53;;;-10.22;81.74
72525;BME280;60547;48.502;8.996;2022-12-18T01:50:23;99130.22;;;-10.22;81.58
72525;BME280;60547;48.502;8.996;2022-12-18T01:53:03;99116.25;;;-10.24;81.15
72525;BME280;60547;48.502;8.996;2022-12-18T01:55:35;99118.09;;;-10.19;81.34
72525;BME280;60547;48.502;8.996;2022-12-18T01:58:02;99108.72;;;-10.27;80.73
72525;BME280;60547;48.502;8.996;2022-12-18T02:00:28;99104.94;;;-10.31;81.53
72525;BME280;60547;48.502;8.996;2022-12-18T02:02:54;99109.78;;;-10.28;82.12
72525;BME280;60547;48.502;8.996;2022-12-18T02:08:20;99108.72;;;-10.37;81.75
72525;BME280;60547;48.502;8.996;2022-12-18T02:11:00;99104.97;;;-10.36;82.36
72525;BME280;60547;48.502;8.996;2022-12-18T02:13:45;99111.69;;;-10.28;82.01
72525;BME280;60547;48.502;8.996;2022-12-18T02:18:47;99103.06;;;-10.25;82.26
72525;BME280;60547;48.502;8.996;2022-12-18T02:26:51;99110.81;;;-10.19;81.88
72525;BME280;60547;48.502;8.996;2022-12-18T02:31:59;99121.28;;;-10.02;80.99
72525;BME280;60547;48.502;8.996;2022-12-18T02:34:30;99125.88;;;-10.07;81.22
72525;BME280;60547;48.502;8.996;2022-12-18T02:36:58;99131.53;;;-10.04;82.26
72525;BME280;60547;48.502;8.996;2022-12-18T02:39:27;99122.38;;;-10.08;82.34
72525;BME280;60547;48.502;8.996;2022-12-18T02:41:54;99124.81;;;-10.12;81.43
72525;BME280;60547;48.502;8.996;2022-12-18T02:44:20;99128.84;;;-10.09;81.79
72525;BME280;60547;48.502;8.996;2022-12-18T02:46:49;99130.19;;;-10.12;81.67
72525;BME280;60547;48.502;8.996;2022-12-18T02:52:07;99130.19;;;-10.06;82.55
72525;BME280;60547;48.502;8.996;2022-12-18T02:57:37;99122.91;;;-10.01;81.17
72525;BME280;60547;48.502;8.996;2022-12-18T03:00:14;99128.28;;;-9.96;80.58
72525;BME280;60547;48.502;8.996;2022-12-18T03:02:45;99142.53;;;-10.00;79.60
72525;BME280;60547;48.502;8.996;2022-12-18T03:05:22;99125.31;;;-9.99;79.66
72525;BME280;60547;48.502;8.996;2022-12-18T03:07:57;99129.38;;;-10.02;80.29
72525;BME280;60547;48.502;8.996;2022-12-18T03:10:28;99119.97;;;-10.09;80.67
72525;BME280;60547;48.502;8.996;2022-12-18T03:13:18;99122.63;;;-9.99;80.33
72525;BME280;60547;48.502;8.996;2022-12-18T03:15:48;99117.53;;;-10.01;80.14
72525;BME280;60547;48.502;8.996;2022-12-18T03:18:21;99117.00;;;-10.03;80.22
72525;BME280;60547;48.502;8.996;2022-12-18T03:20:49;99125.34;;;-10.09;80.72
72525;BME280;60547;48.502;8.996;2022-12-18T03:23:20;99129.38;;;-10.12;80.54
72525;BME280;60547;48.502;8.996;2022-12-18T03:25:51;99132.59;;;-10.10;81.21
72525;BME280;60547;48.502;8.996;2022-12-18T03:28:21;99130.19;;;-10.06;81.04
72525;BME280;60547;48.502;8.996;2022-12-18T03:30:49;99130.72;;;-10.09;81.57
72525;BME280;60547;48.502;8.996;2022-12-18T03:33:41;99126.94;;;-10.08;81.16
72525;BME280;60547;48.502;8.996;2022-12-18T03:36:08;99121.03;;;-10.16;81.93
72525;BME280;60547;48.502;8.996;2022-12-18T03:38:33;99137.19;;;-10.11;81.33
72525;BME280;60547;48.502;8.996;2022-12-18T03:41:08;99138.22;;;-9.96;81.33
72525;BME280;60547;48.502;8.996;2022-12-18T03:46:27;99137.97;;;-10.05;81.10
72525;BME280;60547;48.502;8.996;2022-12-18T03:48:59;99131.78;;;-10.11;81.84
72525;BME280;60547;48.502;8.996;2022-12-18T03:51:51;99123.44;;;-10.04;81.33
72525;BME280;60547;48.502;8.996;2022-12-18T03:54:18;99127.50;;;-10.06;81.71
72525;BME280;60547;48.502;8.996;2022-12-18T03:56:48;99121.03;;;-10.11;81.33
72525;BME280;60547;48.502;8.996;2022-12-18T03:59:17;99115.38;;;-10.04;81.74
72525;BME280;60547;48.502;8.996;2022-12-18T04:01:47;99123.97;;;-10.02;81.91
72525;BME280;60547;48.502;8.996;2022-12-18T04:04:15;99114.28;;;-9.98;81.24
72525;BME280;60547;48.502;8.996;2022-12-18T04:06:43;99113.22;;;-10.02;81.28
72525;BME280;60547;48.502;8.996;2022-12-18T04:09:10;99129.09;;;-9.95;81.21
72525;BME280;60547;48.502;8.996;2022-12-18T04:11:36;99133.94;;;-9.97;80.48
72525;BME280;60547;48.502;8.996;2022-12-18T04:14:02;99133.94;;;-9.97;80.59
72525;BME280;60547;48.502;8.996;2022-12-18T04:16:27;99135.56;;;-10.01;80.65
72525;BME280;60547;48.502;8.996;2022-12-18T04:18:54;99126.66;;;-10.02;80.66
72525;BME280;60547;48.502;8.996;2022-12-18T04:21:20;99131.25;;;-10.02;80.98
72525;BME280;60547;48.502;8.996;2022-12-18T04:23:46;99133.94;;;-10.13;80.89
72525;BME280;60547;48.502;8.996;2022-12-18T04:26:11;99127.22;;;-10.10;81.25
72525;BME280;60547;48.502;8.996;2022-12-18T04:28:37;99126.16;;;-10.14;81.58
72525;BME280;60547;48.502;8.996;2022-12-18T04:31:03;99134.22;;;-10.09;82.00
72525;BME280;60547;48.502;8.996;2022-12-18T04:33:29;99153.31;;;-10.00;81.18
72525;BME280;60547;48.502;8.996;2022-12-18T04:35:54;99138.25;;;-10.01;80.96
72525;BME280;60547;48.502;8.996;2022-12-18T04:38:20;99150.38;;;-10.09;80.84
72525;BME280;60547;48.502;8.996;2022-12-18T04:40:46;99143.91;;;-10.13;81.54
72525;BME280;60547;48.502;8.996;2022-12-18T04:43:11;99145.25;;;-10.16;82.13
72525;BME280;60547;48.502;8.996;2022-12-18T04:45:37;99135.59;;;-10.22;82.51
72525;BME280;60547;48.502;8.996;2022-12-18T04:48:03;99133.94;;;-10.13;82.14
72525;BME280;60547;48.502;8.996;2022-12-18T04:50:30;99146.38;;;-10.22;82.60
72525;BME280;60547;48.502;8.996;2022-12-18T04:52:56;99138.56;;;-10.23;82.92
72525;BME280;60547;48.502;8.996;2022-12-18T04:55:25;99123.78;;;-10.26;83.37
72525;BME280;60547;48.502;8.996;2022-12-18T04:57:51;99117.88;;;-10.43;83.05
72525;BME280;60547;48.502;8.996;2022-12-18T05:00:16;99118.41;;;-10.36;83.41
72525;BME280;60547;48.502;8.996;2022-12-18T05:02:42;99116.78;;;-10.22;83.58
72525;BME280;60547;48.502;8.996;2022-12-18T05:05:08;99111.38;;;-10.17;83.17
72525;BME280;60547;48.502;8.996;2022-12-18T05:07:34;99118.59;;;-10.02;83.37
72525;BME280;60547;48.502;8.996;2022-12-18T05:09:59;99114.56;;;-9.99;82.77
72525;BME280;60547;48.502;8.996;2022-12-18T05:12:25;99116.19;;;-10.03;82.55
72525;BME280;60547;48.502;8.996;2022-12-18T05:14:50;99125.06;;;-10.08;82.72
72525;BME280;60547;48.502;8.996;2022-12-18T05:17:17;99132.06;;;-10.17;82.28
72525;BME280;60547;48.502;8.996;2022-12-18T05:19:42;99124.81;;;-10.12;82.57
72525;BME280;60547;48.502;8.996;2022-12-18T05:22:09;99122.66;;;-10.09;81.75
72525;BME280;60547;48.502;8.996;2022-12-18T05:24:34;99126.69;;;-10.17;81.70
72525;BME280;60547;48.502;8.996;2022-12-18T05:27:00;99099.31;;;-10.34;81.40
72525;BME280;60547;48.502;8.996;2022-12-18T05:29:26;99112.72;;;-10.19;81.29
72525;BME280;60547;48.502;8.996;2022-12-18T05:31:51;99122.94;;;-10.16;81.71
72525;BME280;60547;48.502;8.996;2022-12-18T05:34:17;99117.31;;;-10.25;82.05
72525;BME280;60547;48.502;8.996;2022-12-18T05:36:42;99130.25;;;-10.32;82.41
72525;BME280;60547;48.502;8.996;2022-12-18T05:39:08;99142.34;;;-10.24;83.27
72525;BME280;60547;48.502;8.996;2022-12-18T05:41:33;99132.66;;;-10.30;82.25
72525;BME280;60547;48.502;8.996;2022-12-18T05:43:59;99133.47;;;-10.30;82.57
72525;BME280;60547;48.502;8.996;2022-12-18T05:46:24;99140.19;;;-10.37;82.57
72525;BME280;60547;48.502;8.996;2022-12-18T05:48:50;99130.25;;;-10.47;83.28
72525;BME280;60547;48.502;8.996;2022-12-18T05:51:17;99128.09;;;-10.50;83.69
72525;BME280;60547;48.502;8.996;2022-12-18T05:53:43;99124.88;;;-10.42;83.73
72525;BME280;60547;48.502;8.996;2022-12-18T05:56:13;99116.78;;;-10.37;84.34
72525;BME280;60547;48.502;8.996;2022-12-18T05:58:38;99119.47;;;-10.37;84.28
72525;BME280;60547;48.502;8.996;2022-12-18T06:01:12;99131.84;;;-10.31;83.87
72525;BME280;60547;48.502;8.996;2022-12-18T06:03:39;99125.94;;;-10.38;84.10
72525;BME280;60547;48.502;8.996;2022-12-18T06:06:19;99126.19;;;-10.34;84.04
72525;BME280;60547;48.502;8.996;2022-12-18T06:08:45;99120.56;;;-10.48;84.40
72525;BME280;60547;48.502;8.996;2022-12-18T06:11:11;99138.31;;;-10.37;83.10
72525;BME280;60547;48.502;8.996;2022-12-18T06:13:37;99140.19;;;-10.32;82.61
72525;BME280;60547;48.502;8.996;2022-12-18T06:16:07;99140.19;;;-10.32;82.01
72525;BME280;60547;48.502;8.996;2022-12-18T06:18:33;99146.63;;;-10.28;82.04
72525;BME280;60547;48.502;8.996;2022-12-18T06:20:59;99147.44;;;-10.28;82.88
72525;BME280;60547;48.502;8.996;2022-12-18T06:23:26;99149.88;;;-10.36;83.29
72525;BME280;60547;48.502;8.996;2022-12-18T06:25:52;99143.94;;;-10.33;83.25
72525;BME280;60547;48.502;8.996;2022-12-18T06:28:17;99148.00;;;-10.36;82.49
72525;BME280;60547;48.502;8.996;2022-12-18T06:30:47;99159.56;;;-10.35;82.82
72525;BME280;60547;48.502;8.996;2022-12-18T06:33:14;99165.19;;;-10.37;83.25
72525;BME280;60547;48.502;8.996;2022-12-18T06:35:40;99169.19;;;-10.75;83.84
72525;BME280;60547;48.502;8.996;2022-12-18T06:38:05;99171.38;;;-10.57;83.85
72525;BME280;60547;48.502;8.996;2022-12-18T06:40:31;99156.56;;;-10.74;84.46
72525;BME280;60547;48.502;8.996;2022-12-18T06:42:57;99183.19;;;-10.63;84.31
72525;BME280;60547;48.502;8.996;2022-12-18T06:45:23;99178.06;;;-10.74;84.32
72525;BME280;60547;48.502;8.996;2022-12-18T06:47:50;99165.69;;;-10.81;84.67
72525;BME280;60547;48.502;8.996;2022-12-18T06:50:15;99179.69;;;-10.73;84.30
72525;BME280;60547;48.502;8.996;2022-12-18T06:52:41;99188.81;;;-10.69;84.09
72525;BME280;60547;48.502;8.996;2022-12-18T06:55:10;99171.06;;;-10.81;84.79
72525;BME280;60547;48.502;8.996;2022-12-18T06:57:39;99192.31;;;-10.74;84.85
72525;BME280;60547;48.502;8.996;2022-12-18T07:00:06;99199.84;;;-10.76;84.53
72525;BME280;60547;48.502;8.996;2022-12-18T07:02:32;99189.88;;;-10.86;84.47
72525;BME280;60547;48.502;8.996;2022-12-18T07:04:58;99184.13;;;-11.15;84.71
72525;BME280;60547;48.502;8.996;2022-12-18T07:07:24;99189.28;;;-10.98;84.75
72525;BME280;60547;48.502;8.996;2022-12-18T07:09:50;99215.13;;;-10.87;84.74
72525;BME280;60547;48.502;8.996;2022-12-18T07:12:16;99209.44;;;-11.00;83.96
72525;BME280;60547;48.502;8.996;2022-12-18T07:14:42;99209.16;;;-10.99;83.33
72525;BME280;60547;48.502;8.996;2022-12-18T07:17:08;99214.81;;;-10.95;82.57
72525;BME280;60547;48.502;8.996;2022-12-18T07:19:34;99220.47;;;-10.97;82.92
72525;BME280;60547;48.502;8.996;2022-12-18T07:22:00;99211.84;;;-11.04;82.30
72525;BME280;60547;48.502;8.996;2022-12-18T07:24:25;99215.06;;;-11.07;81.55
72525;BME280;60547;48.502;8.996;2022-12-18T07:26:51;99218.78;;;-11.13;81.25
72525;BME280;60547;48.502;8.996;2022-12-18T07:29:16;99221.97;;;-11.26;81.40
72525;BME280;60547;48.502;8.996;2022-12-18T07:31:42;99212.84;;;-11.25;80.57
72525;BME280;60547;48.502;8.996;2022-12-18T07:34:12;99226.81;;;-11.23;80.41
72525;BME280;60547;48.502;8.996;2022-12-18T07:36:38;99214.94;;;-11.32;80.39
72525;BME280;60547;48.502;8.996;2022-12-18T07:39:04;99209.78;;;-11.44;80.55
72525;BME280;60547;48.502;8.996;2022-12-18T07:41:30;99217.63;;;-11.32;80.46
72525;BME280;60547;48.502;8.996;2022-12-18T07:43:55;99200.41;;;-11.42;80.25
72525;BME280;60547;48.502;8.996;2022-12-18T07:46:21;99219.19;;;-11.42;80.16
72525;BME280;60547;48.502;8.996;2022-12-18T07:48:47;99215.44;;;-11.40;80.18
72525;BME280;60547;48.502;8.996;2022-12-18T07:51:13;99213.22;;;-11.54;81.19
72525;BME280;60547;48.502;8.996;2022-12-18T07:53:40;99208.34;;;-11.62;80.92
72525;BME280;60547;48.502;8.996;2022-12-18T07:56:11;99217.78;;;-11.54;81.32
72525;BME280;60547;48.502;8.996;2022-12-18T07:58:37;99223.41;;;-11.56;80.37
72525;BME280;60547;48.502;8.996;2022-12-18T08:01:10;99225.03;;;-11.55;80.39
72525;BME280;60547;48.502;8.996;2022-12-18T08:03:37;99217.47;;;-11.63;79.98
72525;BME280;60547;48.502;8.996;2022-12-18T08:06:04;99207.31;;;-11.56;79.46
72525;BME280;60547;48.502;8.996;2022-12-18T08:08:30;99213.78;;;-11.52;79.04
72525;BME280;60547;48.502;8.996;2022-12-18T08:10:57;99211.59;;;-11.60;78.66
72525;BME280;60547;48.502;8.996;2022-12-18T08:13:23;99218.34;;;-11.52;78.96
72525;BME280;60547;48.502;8.996;2022-12-18T08:16:04;99229.88;;;-11.52;79.42
72525;BME280;60547;48.502;8.996;2022-12-18T08:18:32;99226.44;;;-11.42;79.19
72525;BME280;60547;48.502;8.996;2022-12-18T08:21:02;99206.28;;;-11.50;79.58
72525;BME280;60547;48.502;8.996;2022-12-18T08:23:32;99228.84;;;-11.46;78.96
72525;BME280;60547;48.502;8.996;2022-12-18T08:25:58;99225.03;;;-11.55;79.74
72525;BME280;60547;48.502;8.996;2022-12-18T08:28:24;99224.50;;;-11.52;79.40
72525;BME280;60547;48.502;8.996;2022-12-18T08:30:52;99231.47;;;-11.56;79.01
72525;BME280;60547;48.502;8.996;2022-12-18T08:33:40;99239.56;;;-11.51;78.38
72525;BME280;60547;48.502;8.996;2022-12-18T08:36:25;99230.16;;;-11.48;78.37
72525;BME280;60547;48.502;8.996;2022-12-18T08:38:57;99240.16;;;-11.38;77.81
72525;BME280;60547;48.502;8.996;2022-12-18T08:41:25;99244.78;;;-11.29;77.74
72525;BME280;60547;48.502;8.996;2022-12-18T08:43:52;99236.44;;;-11.27;77.52
72525;BME280;60547;48.502;8.996;2022-12-18T08:46:45;99229.19;;;-11.32;77.86
72525;BME280;60547;48.502;8.996;2022-12-18T08:49:14;99230.53;;;-11.29;77.58
72525;BME280;60547;48.502;8.996;2022-12-18T08:51:41;99184.75;;;-11.60;76.99
72525;BME280;60547;48.502;8.996;2022-12-18T08:54:16;99226.03;;;-11.14;77.30
72525;BME280;60547;48.502;8.996;2022-12-18T08:56:47;99207.50;;;-11.15;76.47
72525;BME280;60547;48.502;8.996;2022-12-18T08:59:16;99177.63;;;-11.34;76.17
72525;BME280;60547;48.502;8.996;2022-12-18T09:01:47;99216.13;;;-11.03;76.25
72525;BME280;60547;48.502;8.996;2022-12-18T09:04:13;99210.25;;;-11.00;76.55
72525;BME280;60547;48.502;8.996;2022-12-18T09:06:42;99206.00;;;-10.86;76.29
72525;BME280;60547;48.502;8.996;2022-12-18T09:09:09;99211.41;;;-10.65;76.06
72525;BME280;60547;48.502;8.996;2022-12-18T09:11:35;99205.22;;;-10.76;75.34
72525;BME280;60547;48.502;8.996;2022-12-18T09:14:01;99195.84;;;-10.48;75.17
72525;BME280;60547;48.502;8.996;2022-12-18T09:16:30;99184.56;;;-10.25;73.79
72525;BME280;60547;48.502;8.996;2022-12-18T09:18:57;99196.09;;;-10.04;73.36
72525;BME280;60547;48.502;8.996;2022-12-18T09:21:32;99193.13;;;-9.82;72.66
72525;BME280;60547;48.502;8.996;2022-12-18T09:23:58;99196.31;;;-9.60;72.53
72525;BME280;60547;48.502;8.996;2022-12-18T09:26:25;99187.16;;;-9.59;72.76
72525;BME280;60547;48.502;8.996;2022-12-18T09:28:54;99188.97;;;-9.39;72.62
72525;BME280;60547;48.502;8.996;2022-12-18T09:31:22;99184.41;;;-9.38;71.67
72525;BME280;60547;48.502;8.996;2022-12-18T09:33:48;99186.53;;;-9.35;71.17
72525;BME280;60547;48.502;8.996;2022-12-18T09:36:16;99191.09;;;-9.26;71.33
72525;BME280;60547;48.502;8.996;2022-12-18T09:38:45;99179.72;;;-9.13;70.11
72525;BME280;60547;48.502;8.996;2022-12-18T09:41:40;99176.38;;;-8.89;70.18
72525;BME280;60547;48.502;8.996;2022-12-18T09:44:13;99179.47;;;-8.67;69.33
72525;BME280;60547;48.502;8.996;2022-12-18T09:46:53;99170.00;;;-8.59;69.06
72525;BME280;60547;48.502;8.996;2022-12-18T09:49:22;99179.38;;;-8.52;67.68
72525;BME280;60547;48.502;8.996;2022-12-18T09:52:04;99180.19;;;-8.51;68.09
72525;BME280;60547;48.502;8.996;2022-12-18T09:54:38;99172.50;;;-8.34;68.78
72525;BME280;60547;48.502;8.996;2022-12-18T09:57:05;99169.13;;;-8.21;67.98
72525;BME280;60547;48.502;8.996;2022-12-18T09:59:36;99170.75;;;-8.20;68.02
72525;BME280;60547;48.502;8.996;2022-12-18T10:02:15;99183.47;;;-8.25;67.69
72525;BME280;60547;48.502;8.996;2022-12-18T10:04:41;99185.56;;;-8.17;68.43
72525;BME280;60547;48.502;8.996;2022-12-18T10:07:38;99178.84;;;-8.20;68.79
72525;BME280;60547;48.502;8.996;2022-12-18T10:10:27;99181.41;;;-8.04;68.52
72525;BME280;60547;48.502;8.996;2022-12-18T10:13:08;99179.44;;;-7.94;68.05
72525;BME280;60547;48.502;8.996;2022-12-18T10:16:22;99188.47;;;-8.08;67.36
72525;BME280;60547;48.502;8.996;2022-12-18T10:21:32;99186.16;;;-7.91;69.00
72525;BME280;60547;48.502;8.996;2022-12-18T10:26:41;99176.16;;;-7.91;68.88
72525;BME280;60547;48.502;8.996;2022-12-18T10:29:12;99173.69;;;-7.87;69.47
72525;BME280;60547;48.502;8.996;2022-12-18T10:31:38;99162.81;;;-7.77;69.90
72525;BME280;60547;48.502;8.996;2022-12-18T10:34:03;99168.56;;;-7.60;68.68
72525;BME280;60547;48.502;8.996;2022-12-18T10:36:29;99159.84;;;-7.52;69.06
72525;BME280;60547;48.502;8.996;2022-12-18T10:39:14;99166.16;;;-7.37;69.07
72525;BME280;60547;48.502;8.996;2022-12-18T10:41:40;99163.13;;;-7.31;69.25
72525;BME280;60547;48.502;8.996;2022-12-18T10:44:24;99169.09;;;-7.34;69.60
72525;BME280;60547;48.502;8.996;2022-12-18T10:47:02;99178.00;;;-7.33;70.02
72525;BME280;60547;48.502;8.996;2022-12-18T10:49:31;99165.75;;;-7.26;69.61
72525;BME280;60547;48.502;8.996;2022-12-18T10:54:37;99158.09;;;-7.19;70.54
72525;BME280;60547;48.502;8.996;2022-12-18T10:59:56;99146.66;;;-7.10;70.01
72525;BME280;60547;48.502;8.996;2022-12-18T11:02:34;99149.47;;;-7.21;71.28
72525;BME280;60547;48.502;8.996;2022-12-18T11:05:01;99143.59;;;-7.04;69.82
72525;BME280;60547;48.502;8.996;2022-12-18T11:07:48;99127.00;;;-6.97;69.50
72525;BME280;60547;48.502;8.996;2022-12-18T11:10:17;99127.47;;;-7.33;71.13
72525;BME280;60547;48.502;8.996;2022-12-18T11:12:44;99130.13;;;-7.09;71.01
72525;BME280;60547;48.502;8.996;2022-12-18T11:15:21;99133.22;;;-6.97;71.94
72525;BME280;60547;48.502;8.996;2022-12-18T11:17:50;99122.41;;;-6.97;71.66
72525;BME280;60547;48.502;8.996;2022-12-18T11:20:35;99115.69;;;-6.80;71.58
72525;BME280;60547;48.502;8.996;2022-12-18T11:23:10;99116.56;;;-6.66;72.41
72525;BME280;60547;48.502;8.996;2022-12-18T11:25:37;99100.75;;;-6.59;71.50
72525;BME280;60547;48.502;8.996;2022-12-18T11:28:08;99119.28;;;-6.34;71.25
72525;BME280;60547;48.502;8.996;2022-12-18T11:31:29;99104.94;;;-6.34;72.37
72525;BME280;60547;48.502;8.996;2022-12-18T11:36:40;99114.72;;;-6.52;72.98
72525;BME280;60547;48.502;8.996;2022-12-18T11:39:42;99118.09;;;-6.28;72.54
72525;BME280;60547;48.502;8.996;2022-12-18T11:42:54;99093.66;;;-6.23;73.03
72525;BME280;60547;48.502;8.996;2022-12-18T11:45:28;99100.91;;;-6.04;72.20
72525;BME280;60547;48.502;8.996;2022-12-18T11:48:02;99102.34;;;-5.93;72.13
72525;BME280;60547;48.502;8.996;2022-12-18T11:50:59;99096.72;;;-5.83;72.25
72525;BME280;60547;48.502;8.996;2022-12-18T11:53:25;99078.66;;;-5.74;71.76
72525;BME280;60547;48.502;8.996;2022-12-18T12:06:57;99092.31;;;-5.51;71.28
72525;BME280;60547;48.502;8.996;2022-12-18T12:26:38;99061.59;;;-5.47;70.58
72525;BME280;60547;48.502;8.996;2022-12-18T12:40:39;99047.41;;;-5.44;71.64
72525;BME280;60547;48.502;8.996;2022-12-18T12:43:22;99052.13;;;-5.36;72.45
72525;BME280;60547;48.502;8.996;2022-12-18T12:46:08;99052.13;;;-5.36;72.52
72525;BME280;60547;48.502;8.996;2022-12-18T12:51:20;99074.22;;;-5.42;72.77
72525;BME280;60547;48.502;8.996;2022-12-18T12:53:47;99073.44;;;-5.43;73.44
72525;BME280;60547;48.502;8.996;2022-12-18T12:56:15;99071.03;;;-5.44;74.03
72525;BME280;60547;48.502;8.996;2022-12-18T12:59:08;99071.31;;;-5.32;73.53
72525;BME280;60547;48.502;8.996;2022-12-18T13:04:35;99070.63;;;-5.38;74.06
72525;BME280;60547;48.502;8.996;2022-12-18T13:07:10;99088.69;;;-5.33;73.62
72525;BME280;60547;48.502;8.996;2022-12-18T13:10:11;99091.91;;;-5.31;74.64
72525;BME280;60547;48.502;8.996;2022-12-18T13:15:27;99087.28;;;-5.44;74.82
72525;BME280;60547;48.502;8.996;2022-12-18T13:18:04;99084.06;;;-5.46;74.84
72525;BME280;60547;48.502;8.996;2022-12-18T13:20:41;99086.47;;;-5.45;74.91
72525;BME280;60547;48.502;8.996;2022-12-18T13:36:37;99072.03;;;-5.54;76.32
72525;BME280;60547;48.502;8.996;2022-12-18T13:41:42;99075.25;;;-5.52;76.99
72525;BME280;60547;48.502;8.996;2022-12-18T13:47:04;99062.50;;;-5.51;77.45
72525;BME280;60547;48.502;8.996;2022-12-18T13:49:54;99063.38;;;-5.42;76.75
72525;BME280;60547;48.502;8.996;2022-12-18T13:52:33;99067.19;;;-5.43;77.75
72525;BME280;60547;48.502;8.996;2022-12-18T13:55:07;99054.34;;;-5.51;77.53
72525;BME280;60547;48.502;8.996;2022-12-18T13:57:42;99063.00;;;-5.49;78.19
72525;BME280;60547;48.502;8.996;2022-12-18T14:00:24;99062.97;;;-5.36;77.54
72525;BME280;60547;48.502;8.996;2022-12-18T14:02:51;99053.34;;;-5.42;78.53
72525;BME280;60547;48.502;8.996;2022-12-18T14:07:48;99048.53;;;-5.45;77.88
72525;BME280;60547;48.502;8.996;2022-12-18T14:10:15;99038.69;;;-5.55;78.61
72525;BME280;60547;48.502;8.996;2022-12-18T14:12:45;99058.06;;;-5.47;79.29
72525;BME280;60547;48.502;8.996;2022-12-18T14:15:34;99051.53;;;-5.46;78.84
72525;BME280;60547;48.502;8.996;2022-12-18T14:18:13;99059.38;;;-5.45;78.81
72525;BME280;60547;48.502;8.996;2022-12-18T14:20:44;99061.38;;;-5.50;79.54
72525;BME280;60547;48.502;8.996;2022-12-18T14:25:54;99052.97;;;-5.63;80.56
72525;BME280;60547;48.502;8.996;2022-12-18T14:28:20;99065.00;;;-5.69;80.94
72525;BME280;60547;48.502;8.996;2022-12-18T14:30:48;99056.78;;;-5.91;81.17
72525;BME280;60547;48.502;8.996;2022-12-18T14:33:20;99058.69;;;-5.78;81.03
72525;BME280;60547;48.502;8.996;2022-12-18T14:35:59;99066.41;;;-5.85;81.83
72525;BME280;60547;48.502;8.996;2022-12-18T14:38:31;99065.28;;;-5.84;81.25
72525;BME280;60547;48.502;8.996;2022-12-18T14:43:25;99059.06;;;-5.84;81.52
72525;BME280;60547;48.502;8.996;2022-12-18T14:45:51;99064.28;;;-5.88;81.02
72525;BME280;60547;48.502;8.996;2022-12-18T14:48:20;99065.53;;;-5.94;81.85
72525;BME280;60547;48.502;8.996;2022-12-18T14:50:56;99053.16;;;-6.00;82.21
72525;BME280;60547;48.502;8.996;2022-12-18T14:53:43;99058.19;;;-6.07;82.39
72525;BME280;60547;48.502;8.996;2022-12-18T14:56:13;99066.81;;;-6.05;81.64
72525;BME280;60547;48.502;8.996;2022-12-18T14:59:26;99065.00;;;-6.10;81.71
72525;BME280;60547;48.502;8.996;2022-12-18T15:01:36;99070.81;;;-6.16;81.44
72525;BME280;60547;48.502;8.996;2022-12-18T15:04:04;99067.75;;;-6.29;81.67
72525;BME280;60547;48.502;8.996;2022-12-18T15:08:59;99079.28;;;-6.37;81.22